Latest Weather Observations for Glen Innes Airport

IDN60801

Issued at 6:23 pm EST Saturday 9 May 2026 (issued every 10 minutes, with the page automatically refreshed every 10 minutes)

About weather observations | Map of weather stations | Latest weather observations for NSW | Other Formats
Station Details ID: 056243 Name: GLEN INNES AIRPORT AWS Lat: -29.68 Lon: 151.69 Height: 1044.3 m
Data from the previous 72 hours. | See also: Recent months at Glen Innes Airport
Date/Time
EST
Temp
°C
App
Temp
°C
Dew
Point
°C
Rel
Hum
%
Delta-T
°C
Wind Press
QNH
hPa
Press
MSL
hPa
Rain since
9am
mm
Dir  Spd
km/h
Gust
km/h
Spd
kts
Gust
kts
09/06:00pm 10.8 7.7 3.4 60 3.4 SSW 9 13 5 7 1025.6 1024.6 0.0
09/05:30pm 12.7 8.8 3.4 53 4.4 E 13 15 7 8 1025.0 1024.0 0.0
09/05:00pm 16.1 12.6 1.4 37 6.8 ESE 9 11 5 6 1024.7 1023.7 0.0
09/04:30pm 17.6 14.2 1.6 34 7.6 ESE 9 13 5 7 1024.4 1023.4 0.0
09/04:00pm 18.5 15.0 1.5 32 8.1 SE 9 13 5 7 1024.3 1023.2 0.0
09/03:30pm 18.8 15.9 1.3 31 8.3 NE 6 13 3 7 1024.1 1023.1 0.0
09/03:00pm 18.8 15.8 2.2 33 8.0 E 7 17 4 9 1024.0 1023.0 0.0
09/02:30pm 18.4 14.6 1.9 33 7.9 ESE 11 15 6 8 1024.0 1023.0 0.0
09/02:00pm 18.3 15.0 2.2 34 7.7 SSE 9 17 5 9 1024.0 1023.0 0.0
09/01:30pm 18.1 14.8 2.4 35 7.6 SE 9 17 5 9 1024.1 1023.1 0.0
09/01:00pm 17.7 14.0 2.5 36 7.3 E 11 22 6 12 1024.4 1023.4 0.0
09/12:30pm 17.0 12.1 2.2 37 7.1 SE 17 26 9 14 1024.7 1023.7 0.0
09/12:00pm 16.8 11.9 2.0 37 7.0 ESE 17 26 9 14 1024.9 1023.9 0.0
09/11:30am 16.1 11.0 1.0 36 7.0 E 17 24 9 13 1025.3 1024.3 0.0
09/11:00am 15.5 10.0 0.9 37 6.7 ESE 19 28 10 15 1025.6 1024.6 0.0
09/10:30am 15.2 9.7 1.7 40 6.3 ESE 20 30 11 16 1025.6 1024.6 0.0
09/10:00am 14.5 8.6 1.4 41 6.0 ESE 22 32 12 17 1025.6 1024.6 0.0
09/09:30am 13.5 7.7 2.1 46 5.3 ESE 22 30 12 16 1025.5 1024.5 0.0
09/09:00am 12.1 6.8 3.1 54 4.2 ESE 20 24 11 13 1025.4 1024.4 0.0
09/08:30am 9.8 5.2 3.8 66 2.8 ESE 17 20 9 11 1025.1 1024.1 0.0
09/08:00am 7.6 4.0 3.1 73 2.0 ESE 11 15 6 8 1024.8 1023.8 0.0
09/07:30am 4.9 1.5 2.1 82 1.2 E 9 13 5 7 1024.6 1023.6 0.0
09/07:00am 2.3 -1.6 1.0 91 0.5 ESE 11 13 6 7 1024.3 1023.2 0.0
09/06:30am 0.6 -3.6 -0.7 91 0.5 SE 11 13 6 7 1023.9 1022.9 0.0
09/06:00am 0.5 -3.6 -0.5 93 0.4 ESE 11 13 6 7 1023.7 1022.7 0.0
09/05:30am 0.5 -4.1 -0.8 91 0.5 SE 13 15 7 8 1023.1 1022.1 0.0
09/05:00am 2.0 -2.8 0.4 89 0.6 ESE 15 17 8 9 1022.8 1021.8 0.0
09/04:30am 1.9 -2.5 0.3 89 0.6 E 13 15 7 8 1022.8 1021.8 0.0
09/04:00am 2.5 -2.2 0.7 88 0.7 E 15 17 8 9 1022.7 1021.7 0.0
09/03:30am 2.1 -1.5 0.3 88 0.7 E 9 15 5 8 1022.4 1021.3 0.0
09/03:00am 3.8 -1.2 1.4 84 1.0 SE 17 20 9 11 1022.2 1021.1 0.0
09/02:30am 2.7 -2.3 1.1 89 0.7 SE 17 20 9 11 1022.3 1021.2 0.0
09/02:00am 1.9 -2.9 0.3 89 0.6 ESE 15 17 8 9 1022.5 1021.4 0.0
09/01:30am 0.2 -3.6 -0.9 92 0.4 ESE 9 11 5 6 1022.4 1021.3 0.0
09/01:00am 0.1 -3.2 -0.9 93 0.4 SE 6 7 3 4 1022.5 1021.4 0.0
09/12:30am 0.9 -3.4 -1.3 85 0.8 SSE 11 11 6 6 1022.5 1021.4 0.0
09/12:00am 2.1 -2.3 0.6 90 0.6 ESE 13 15 7 8 1022.7 1021.7 0.0
 
Date/Time
EST
Temp
°C
App
Temp
°C
Dew
Point
°C
Rel
Hum
%
Delta-T
°C
Wind Press
QNH
hPa
Press
MSL
hPa
Rain since
9am
mm
Dir  Spd
km/h
Gust
km/h
Spd
kts
Gust
kts
08/11:30pm -0.2 -3.8 -2.1 87 0.7 SE 7 9 4 5 1022.8 1021.8 0.0
08/11:00pm 1.1 -2.7 -1.0 86 0.8 ESE 9 11 5 6 1022.8 1021.8 0.0
08/10:30pm 1.0 -2.5 -1.2 85 0.8 SE 7 11 4 6 1022.9 1021.9 0.0
08/10:00pm 2.0 -1.4 -0.9 81 1.1 ESE 7 11 4 6 1023.3 1022.2 0.0
08/09:30pm 2.7 0.6 -1.1 76 1.5 CALM 0 0 0 0 1023.1 1022.1 0.0
08/09:00pm 2.4 0.2 -1.4 76 1.4 CALM 0 0 0 0 1022.9 1021.9 0.0
08/08:30pm 3.4 -0.1 -1.0 73 1.7 W 7 9 4 5 1022.6 1021.5 0.0
08/08:00pm 4.8 1.9 -1.2 65 2.4 WSW 4 7 2 4 1022.5 1021.4 0.0
08/07:30pm 5.1 2.2 -1.1 64 2.5 WSW 4 7 2 4 1022.3 1021.2 0.0
08/07:00pm 5.8 1.9 -1.6 59 2.9 WSW 9 13 5 7 1022.0 1021.0 0.0
08/06:30pm 7.6 3.3 -1.6 52 3.7 WSW 11 11 6 6 1021.8 1020.7 0.0
08/06:00pm 9.5 6.1 -2.1 44 4.7 WSW 6 11 3 6 1021.6 1020.5 0.0
08/05:30pm 10.8 5.5 -0.9 44 5.0 SW 17 20 9 11 1021.0 1020.0 0.0
08/05:00pm 12.6 6.9 -0.6 40 5.7 WSW 19 26 10 14 1020.7 1019.6 0.0
08/04:30pm 14.0 7.0 -0.8 36 6.5 WSW 26 33 14 18 1020.4 1019.3 0.0
08/04:00pm 15.1 8.3 -1.5 32 7.2 WSW 24 33 13 18 1020.3 1019.2 0.0
08/03:30pm 15.7 9.4 -0.9 32 7.4 WSW 22 33 12 18 1020.0 1018.9 0.0
08/03:00pm 15.9 8.9 -0.3 33 7.3 WSW 26 33 14 18 1019.8 1018.7 0.0
08/02:30pm 16.3 9.3 -0.4 32 7.5 W 26 35 14 19 1019.7 1018.6 0.0
08/02:00pm 16.2 9.6 -0.1 33 7.4 WSW 24 33 13 18 1019.7 1018.6 0.0
08/01:30pm 16.2 10.4 -0.1 33 7.4 W 20 32 11 17 1020.2 1019.1 0.0
08/01:00pm 16.3 10.3 0.8 35 7.1 W 22 32 12 17 1020.4 1019.3 0.0
08/12:30pm 16.7 10.6 0.4 33 7.5 WSW 22 32 12 17 1020.5 1019.4 0.0
08/12:00pm 15.3 8.8 0.3 36 6.8 WSW 24 33 13 18 1020.6 1019.5 0.0
08/11:30am 14.3 9.1 0.2 38 6.3 W 17 28 9 15 1021.2 1020.1 0.0
08/11:00am 13.4 7.5 -0.6 38 6.1 W 20 28 11 15 1021.4 1020.3 0.0
08/10:30am 13.1 8.1 -0.9 38 6.1 W 15 22 8 12 1021.7 1020.6 0.0
08/10:00am 12.8 7.5 -0.4 40 5.7 WSW 17 20 9 11 1021.7 1020.6 0.0
08/09:30am 11.2 7.8 -0.9 43 5.1 NW 7 22 4 12 1021.7 1020.6 0.0
08/09:00am 7.9 4.9 -1.6 51 3.8 WSW 4 9 2 5 1021.8 1020.7 0.0
08/08:30am 5.3 2.0 -1.6 61 2.7 W 6 9 3 5 1021.5 1020.4 0.0
08/08:00am 2.9 -0.5 -2.2 69 1.9 W 6 9 3 5 1021.4 1020.3 0.0
08/07:30am 1.2 -2.2 -2.4 77 1.4 WNW 6 7 3 4 1021.2 1020.1 0.0
08/07:00am -1.3 -4.9 -3.3 86 0.6 NW 6 7 3 4 1021.2 1020.1 0.0
08/06:30am -2.0 -5.9 -4.2 85 0.7 NNW 7 9 4 5 1021.0 1020.0 0.0
08/06:00am -1.9 -4.5 -4.6 82 0.8 CALM 0 0 0 0 1020.8 1019.7 0.0
08/05:30am -1.3 -5.6 -4.5 79 1.0 W 9 13 5 7 1020.8 1019.7 0.0
08/05:00am -0.8 -4.5 -4.5 76 1.2 WSW 6 9 3 5 1020.6 1019.5 0.0
08/04:30am -1.7 -5.6 -4.5 81 0.9 WNW 7 9 4 5 1020.6 1019.5 0.0
08/04:00am -3.2 -7.3 -6.6 77 0.9 SW 7 9 4 5 1020.7 1019.6 0.0
08/03:30am -1.0 -4.9 -4.9 75 1.3 W 7 9 4 5 1020.6 1019.5 0.0
08/03:00am -0.6 -3.9 -4.6 74 1.3 WNW 4 7 2 4 1020.5 1019.4 0.0
08/02:30am -0.4 -4.1 -5.0 71 1.5 WNW 6 9 3 5 1020.5 1019.4 0.0
08/02:00am -0.6 -4.6 -5.8 68 1.7 W 7 11 4 6 1020.6 1019.5 0.0
08/01:30am 1.3 -3.4 -5.2 62 2.3 SW 11 15 6 8 1020.7 1019.6 0.0
08/01:00am 1.0 -3.7 -5.2 63 2.2 SW 11 15 6 8 1020.6 1019.5 0.0
08/12:30am 1.4 -3.8 -5.7 59 2.5 WSW 13 17 7 9 1020.6 1019.5 0.0
08/12:00am 2.1 -1.7 -6.0 55 2.9 SW 6 13 3 7 1020.9 1019.8 0.0
 
Date/Time
EST
Temp
°C
App
Temp
°C
Dew
Point
°C
Rel
Hum
%
Delta-T
°C
Wind Press
QNH
hPa
Press
MSL
hPa
Rain since
9am
mm
Dir  Spd
km/h
Gust
km/h
Spd
kts
Gust
kts
07/11:30pm 2.1 -2.0 -6.2 54 2.9 SSW 7 11 4 6 1020.9 1019.8 0.0
07/11:00pm 2.2 -2.6 -6.1 54 2.9 SSW 11 15 6 8 1020.8 1019.7 0.0
07/10:30pm 3.0 -2.2 -6.1 51 3.3 SSW 13 15 7 8 1020.7 1019.6 0.0
07/10:00pm 4.3 -0.9 -5.7 48 3.5 SSW 13 20 7 11 1020.8 1019.7 0.0
07/09:30pm 4.6 0.8 -5.2 49 3.5 SW 6 13 3 7 1020.9 1019.8 0.0
07/09:00pm 5.6 -1.0 -3.7 51 3.5 SW 22 32 12 17 1020.5 1019.4 0.0
07/08:30pm 5.7 -0.8 -2.1 57 3.0 SW 22 35 12 19 1020.5 1019.4 0.0
07/08:00pm 6.8 1.5 2.1 72 2.0 SW 19 28 10 15 1020.5 1019.4 0.0
07/07:30pm 7.9 1.9 3.4 73 2.0 WSW 24 33 13 18 1019.9 1018.8 0.0
07/07:00pm 9.0 2.2 3.0 66 2.7 WSW 28 39 15 21 1019.3 1018.1 0.0
07/06:30pm 9.5 2.7 3.3 65 2.9 W 28 39 15 21 1018.7 1017.6 0.0
07/06:00pm 10.3 3.0 2.7 59 3.5 WNW 30 37 16 20 1018.2 1017.0 0.0
07/05:30pm 11.1 3.1 1.9 53 4.2 WNW 33 46 18 25 1017.8 1016.7 0.0
07/05:00pm 12.6 5.2 1.6 47 5.0 WNW 30 44 16 24 1017.3 1016.1 0.0
07/04:30pm 13.9 5.6 2.2 45 5.5 W 35 50 19 27 1017.3 1016.1 0.0
07/04:00pm 14.6 5.5 1.8 42 5.9 W 39 48 21 26 1017.3 1016.1 0.0
07/03:30pm 15.0 5.8 1.2 39 6.4 W 39 54 21 29 1017.3 1016.1 0.0
07/03:21pm 15.3 6.8 0.7 37 6.7 W 35 54 19 29 1017.4 1016.2 0.0
07/03:00pm 15.5 6.1 0.1 35 7.0 W 39 50 21 27 1017.4 1016.2 0.0
07/02:30pm 15.9 7.4 1.2 37 6.8 W 35 56 19 30 1017.4 1016.2 0.0
07/02:13pm 16.3 8.1 0.4 34 7.3 WNW 33 52 18 28 1017.5 1016.3 0.0
07/02:00pm 15.6 6.9 -0.6 33 7.2 WNW 35 48 19 26 1017.4 1016.2 0.0
07/01:30pm 16.0 8.3 -0.2 33 7.3 W 30 46 16 25 1017.8 1016.7 0.0
07/01:00pm 15.8 8.7 1.5 38 6.7 WNW 28 39 15 21 1017.9 1016.8 0.0
07/12:30pm 15.4 6.8 -2.5 29 7.6 WNW 33 46 18 25 1018.3 1017.1 0.0
07/12:00pm 14.5 7.1 -0.8 35 6.7 WNW 28 39 15 21 1018.4 1017.2 0.0
07/11:30am 15.7 7.8 -1.4 31 7.5 WNW 30 41 16 22 1018.8 1017.7 0.0
07/11:00am 15.2 8.0 0.6 37 6.6 W 28 33 15 18 1019.2 1018.0 0.0
07/10:30am 14.3 7.3 1.9 43 5.8 W 28 35 15 19 1019.6 1018.5 0.0
07/10:00am 13.6 7.1 2.5 47 5.2 W 26 35 14 19 1019.8 1018.7 0.0
07/09:30am 13.1 7.4 4.8 57 4.1 W 24 30 13 16 1019.7 1018.6 0.0
07/09:00am 12.3 7.0 5.0 61 3.6 WSW 22 28 12 15 1019.8 1018.7 0.2
07/08:30am 10.9 7.7 7.0 77 2.0 WNW 13 19 7 10 1019.7 1018.6 0.2
07/08:00am 8.1 5.8 5.9 86 1.1 WNW 7 9 4 5 1019.6 1018.5 0.2
07/07:30am 4.7 2.3 4.4 98 0.1 W 6 7 3 4 1019.5 1018.4 0.2
07/07:00am 3.8 1.1 3.5 98 0.1 WNW 7 7 4 4 1019.4 1018.3 0.2
07/06:30am 3.7 0.9 3.4 98 0.1 WNW 7 9 4 5 1019.2 1018.0 0.2
07/06:00am 4.1 1.0 3.8 98 0.1 W 9 9 5 5 1018.8 1017.7 0.2
07/05:30am 5.4 3.0 5.1 98 0.1 W 7 9 4 5 1018.7 1017.6 0.2
07/05:00am 6.0 3.7 5.7 98 0.1 W 7 9 4 5 1018.6 1017.5 0.2
07/04:44am 5.7 3.3 5.4 98 0.1 W 7 9 4 5 1018.5 1017.4 0.2
07/04:31am 5.2 2.9 4.9 98 0.1 W 6 7 3 4 1018.5 1017.4 0.2
07/04:30am 5.3 3.0 5.0 98 0.1 W 6 7 3 4 1018.5 1017.4 0.2
07/04:19am 5.6 3.4 5.2 97 0.2 WNW 6 7 3 4 1018.5 1017.4 0.2
07/04:05am 5.9 3.7 5.5 97 0.2 WNW 6 7 3 4 1018.7 1017.6 0.2
07/04:04am 5.9 3.7 5.5 97 0.2 WNW 6 7 3 4 1018.7 1017.6 0.2
07/04:03am 6.0 3.9 5.6 97 0.2 WNW 6 7 3 4 1018.7 1017.6 0.2
07/04:00am 6.2 4.1 5.9 98 0.1 WNW 6 7 3 4 1018.7 1017.6 0.2
07/03:30am 7.1 5.2 6.7 97 0.2 WNW 6 6 3 3 1018.7 1017.6 0.2
07/03:19am 7.9 6.2 7.5 97 0.2 WNW 6 6 3 3 1018.7 1017.6 0.2
07/03:12am 8.0 6.3 7.6 97 0.2 WNW 6 6 3 3 1018.8 1017.7 0.2
07/03:00am 8.4 6.8 8.0 97 0.2 WNW 6 7 3 4 1018.7 1017.6 0.2
07/02:30am 9.0 7.5 8.4 96 0.3 WNW 6 7 3 4 1019.1 1017.9 0.2
07/02:00am 9.6 7.9 8.4 92 0.6 WNW 7 9 4 5 1019.1 1017.9 0.2
07/01:30am 11.4 10.3 10.5 94 0.5 WNW 7 7 4 4 1019.4 1018.3 0.2
07/01:00am 12.1 11.0 10.8 92 0.7 NNW 7 9 4 5 1019.5 1018.4 0.2
07/12:30am 12.1 11.3 11.2 94 0.5 NW 6 9 3 5 1019.6 1018.5 0.2
07/12:00am 11.5 10.3 10.2 92 0.7 WNW 7 9 4 5 1019.6 1018.5 0.2
 
Date/Time
EST
Temp
°C
App
Temp
°C
Dew
Point
°C
Rel
Hum
%
Delta-T
°C
Wind Press
QNH
hPa
Press
MSL
hPa
Rain since
9am
mm
Dir  Spd
km/h
Gust
km/h
Spd
kts
Gust
kts
06/11:30pm 12.6 11.2 10.8 89 1.0 NW 9 11 5 6 1019.7 1018.6 0.2
06/11:00pm 12.6 11.8 11.0 90 0.9 NW 6 7 3 4 1019.8 1018.7 0.2
06/10:30pm 13.3 12.2 12.0 92 0.7 NW 9 11 5 6 1020.5 1019.4 0.2
06/10:00pm 13.4 12.0 12.3 93 0.6 NW 11 13 6 7 1020.6 1019.5 0.2
06/09:30pm 11.8 11.0 11.2 96 0.3 NNE 6 6 3 3 1020.6 1019.5 0.2
06/09:00pm 12.5 11.7 11.7 95 0.4 E 7 7 4 4 1020.7 1019.6 0.2
06/08:30pm 13.6 13.3 12.7 94 0.5 ESE 6 7 3 4 1020.7 1019.6 0.2
06/08:00pm 14.4 13.7 11.9 85 1.4 W 7 9 4 5 1020.7 1019.6 0.2
06/07:30pm 14.5 15.1 12.0 85 1.4 CALM 0 0 0 0 1020.6 1019.5 0.2
06/07:00pm 14.2 13.5 11.5 84 1.5 WNW 6 7 3 4 1020.3 1019.2 0.2
06/06:30pm 14.3 13.4 11.3 82 1.7 WNW 7 9 4 5 1020.0 1018.9 0.2

Other formats

Comma delimited format used in spreadsheet applications
http://www.bom.gov.au/fwo/IDN60801/IDN60801.94588.axf

JavaScript Object Notation format (JSON) in row-major order
http://www.bom.gov.au/fwo/IDN60801/IDN60801.94588.json

Data quality

Most of these data are generated automatically and are frequently updated. Quality checks on data are not normally performed. It is possible for incorrect values to appear. Refer to information at About Latest Weather Observations and please check the disclaimer before using these data.